sensor_id;sensor_type;location;lat;lon;timestamp;temperature;humidity
66337;SHT30;53139;45.576;5.304;2022-08-24T00:02:25;25.55;55.82
66337;SHT30;53139;45.576;5.304;2022-08-24T00:05:26;25.52;55.80
66337;SHT30;53139;45.576;5.304;2022-08-24T00:08:27;25.48;55.86
66337;SHT30;53139;45.576;5.304;2022-08-24T00:11:28;25.47;56.12
66337;SHT30;53139;45.576;5.304;2022-08-24T00:14:28;25.42;55.72
66337;SHT30;53139;45.576;5.304;2022-08-24T00:17:29;25.39;56.20
66337;SHT30;53139;45.576;5.304;2022-08-24T00:20:29;25.38;55.97
66337;SHT30;53139;45.576;5.304;2022-08-24T00:23:30;25.33;55.85
66337;SHT30;53139;45.576;5.304;2022-08-24T00:26:30;25.34;55.85
66337;SHT30;53139;45.576;5.304;2022-08-24T00:29:31;25.28;56.94
66337;SHT30;53139;45.576;5.304;2022-08-24T00:32:32;25.23;56.07
66337;SHT30;53139;45.576;5.304;2022-08-24T00:35:32;25.27;56.17
66337;SHT30;53139;45.576;5.304;2022-08-24T00:38:33;25.21;56.54
66337;SHT30;53139;45.576;5.304;2022-08-24T00:41:38;25.19;56.25
66337;SHT30;53139;45.576;5.304;2022-08-24T00:44:38;25.16;56.31
66337;SHT30;53139;45.576;5.304;2022-08-24T00:47:53;25.14;56.32
66337;SHT30;53139;45.576;5.304;2022-08-24T00:50:58;25.07;57.55
66337;SHT30;53139;45.576;5.304;2022-08-24T00:54:05;25.06;56.20
66337;SHT30;53139;45.576;5.304;2022-08-24T00:57:08;25.03;56.60
66337;SHT30;53139;45.576;5.304;2022-08-24T01:00:18;25.00;56.53
66337;SHT30;53139;45.576;5.304;2022-08-24T01:03:18;24.99;56.51
66337;SHT30;53139;45.576;5.304;2022-08-24T01:06:19;24.96;57.30
66337;SHT30;53139;45.576;5.304;2022-08-24T01:09:19;24.92;56.48
66337;SHT30;53139;45.576;5.304;2022-08-24T01:12:21;24.89;56.84
66337;SHT30;53139;45.576;5.304;2022-08-24T01:15:23;24.86;56.66
66337;SHT30;53139;45.576;5.304;2022-08-24T01:18:25;24.84;56.72
66337;SHT30;53139;45.576;5.304;2022-08-24T01:21:53;24.80;57.11
66337;SHT30;53139;45.576;5.304;2022-08-24T01:24:56;24.77;57.23
66337;SHT30;53139;45.576;5.304;2022-08-24T01:28:00;24.75;57.89
66337;SHT30;53139;45.576;5.304;2022-08-24T01:31:01;24.72;57.09
66337;SHT30;53139;45.576;5.304;2022-08-24T01:34:02;24.72;57.28
66337;SHT30;53139;45.576;5.304;2022-08-24T01:37:03;24.68;58.19
66337;SHT30;53139;45.576;5.304;2022-08-24T01:40:05;24.68;57.53
66337;SHT30;53139;45.576;5.304;2022-08-24T01:43:07;24.64;57.50
66337;SHT30;53139;45.576;5.304;2022-08-24T01:46:07;24.61;57.66
66337;SHT30;53139;45.576;5.304;2022-08-24T01:49:08;24.56;58.03
66337;SHT30;53139;45.576;5.304;2022-08-24T01:52:12;24.52;57.64
66337;SHT30;53139;45.576;5.304;2022-08-24T01:55:14;24.52;57.91
66337;SHT30;53139;45.576;5.304;2022-08-24T01:58:15;24.49;58.41
66337;SHT30;53139;45.576;5.304;2022-08-24T02:01:17;24.47;58.34
66337;SHT30;53139;45.576;5.304;2022-08-24T02:04:18;24.44;58.41
66337;SHT30;53139;45.576;5.304;2022-08-24T02:07:19;24.45;59.24
66337;SHT30;53139;45.576;5.304;2022-08-24T02:10:19;24.41;58.75
66337;SHT30;53139;45.576;5.304;2022-08-24T02:13:20;24.42;57.51
66337;SHT30;53139;45.576;5.304;2022-08-24T02:16:20;24.37;57.93
66337;SHT30;53139;45.576;5.304;2022-08-24T02:19:20;24.34;59.36
66337;SHT30;53139;45.576;5.304;2022-08-24T02:22:21;24.29;58.90
66337;SHT30;53139;45.576;5.304;2022-08-24T02:25:22;24.28;57.80
66337;SHT30;53139;45.576;5.304;2022-08-24T02:28:23;24.25;58.13
66337;SHT30;53139;45.576;5.304;2022-08-24T02:31:23;24.21;59.88
66337;SHT30;53139;45.576;5.304;2022-08-24T02:34:24;24.18;60.35
66337;SHT30;53139;45.576;5.304;2022-08-24T02:37:25;24.18;59.94
66337;SHT30;53139;45.576;5.304;2022-08-24T02:40:26;24.17;60.38
66337;SHT30;53139;45.576;5.304;2022-08-24T02:43:27;24.14;60.27
66337;SHT30;53139;45.576;5.304;2022-08-24T02:46:29;24.14;60.48
66337;SHT30;53139;45.576;5.304;2022-08-24T02:49:29;24.10;59.03
66337;SHT30;53139;45.576;5.304;2022-08-24T02:52:30;24.07;58.88
66337;SHT30;53139;45.576;5.304;2022-08-24T02:55:30;24.06;58.72
66337;SHT30;53139;45.576;5.304;2022-08-24T02:58:30;24.04;59.49
66337;SHT30;53139;45.576;5.304;2022-08-24T03:01:31;24.01;60.42
66337;SHT30;53139;45.576;5.304;2022-08-24T03:04:31;23.99;59.66
66337;SHT30;53139;45.576;5.304;2022-08-24T03:07:32;24.00;61.00
66337;SHT30;53139;45.576;5.304;2022-08-24T03:10:32;23.94;60.35
66337;SHT30;53139;45.576;5.304;2022-08-24T03:13:34;23.94;61.11
66337;SHT30;53139;45.576;5.304;2022-08-24T03:16:34;23.90;61.15
66337;SHT30;53139;45.576;5.304;2022-08-24T03:19:35;23.87;60.42
66337;SHT30;53139;45.576;5.304;2022-08-24T03:22:36;23.86;60.85
66337;SHT30;53139;45.576;5.304;2022-08-24T03:25:37;23.84;60.85
66337;SHT30;53139;45.576;5.304;2022-08-24T03:28:38;23.83;61.05
66337;SHT30;53139;45.576;5.304;2022-08-24T03:31:38;23.77;61.14
66337;SHT30;53139;45.576;5.304;2022-08-24T03:34:39;23.80;61.17
66337;SHT30;53139;45.576;5.304;2022-08-24T03:37:39;23.76;60.99
66337;SHT30;53139;45.576;5.304;2022-08-24T03:40:40;23.75;60.25
66337;SHT30;53139;45.576;5.304;2022-08-24T03:43:41;23.76;61.24
66337;SHT30;53139;45.576;5.304;2022-08-24T03:46:50;23.72;61.14
66337;SHT30;53139;45.576;5.304;2022-08-24T03:49:52;23.67;60.90
66337;SHT30;53139;45.576;5.304;2022-08-24T03:52:52;23.67;60.47
66337;SHT30;53139;45.576;5.304;2022-08-24T03:55:53;23.65;61.22
66337;SHT30;53139;45.576;5.304;2022-08-24T03:58:53;23.62;60.97
66337;SHT30;53139;45.576;5.304;2022-08-24T04:01:54;23.61;60.23
66337;SHT30;53139;45.576;5.304;2022-08-24T04:04:56;23.56;61.43
66337;SHT30;53139;45.576;5.304;2022-08-24T04:07:57;23.58;61.56
66337;SHT30;53139;45.576;5.304;2022-08-24T04:10:57;23.56;61.34
66337;SHT30;53139;45.576;5.304;2022-08-24T04:13:58;23.54;61.41
66337;SHT30;53139;45.576;5.304;2022-08-24T04:16:59;23.54;61.04
66337;SHT30;53139;45.576;5.304;2022-08-24T04:19:59;23.49;61.22
66337;SHT30;53139;45.576;5.304;2022-08-24T04:22:59;23.48;61.46
66337;SHT30;53139;45.576;5.304;2022-08-24T04:26:03;23.48;61.31
66337;SHT30;53139;45.576;5.304;2022-08-24T04:29:05;23.45;60.92
66337;SHT30;53139;45.576;5.304;2022-08-24T04:32:08;23.42;60.79
66337;SHT30;53139;45.576;5.304;2022-08-24T04:35:09;23.41;61.14
66337;SHT30;53139;45.576;5.304;2022-08-24T04:38:10;23.41;61.41
66337;SHT30;53139;45.576;5.304;2022-08-24T04:41:11;23.38;61.57
66337;SHT30;53139;45.576;5.304;2022-08-24T04:44:12;23.35;61.46
66337;SHT30;53139;45.576;5.304;2022-08-24T04:47:12;23.35;60.40
66337;SHT30;53139;45.576;5.304;2022-08-24T04:50:12;23.32;61.41
66337;SHT30;53139;45.576;5.304;2022-08-24T04:53:14;23.31;60.16
66337;SHT30;53139;45.576;5.304;2022-08-24T04:56:20;23.28;61.24
66337;SHT30;53139;45.576;5.304;2022-08-24T04:59:23;23.25;61.30
66337;SHT30;53139;45.576;5.304;2022-08-24T05:02:23;23.25;61.43
66337;SHT30;53139;45.576;5.304;2022-08-24T05:05:24;23.22;61.24
66337;SHT30;53139;45.576;5.304;2022-08-24T05:08:24;23.21;60.58
66337;SHT30;53139;45.576;5.304;2022-08-24T05:11:25;23.20;61.32
66337;SHT30;53139;45.576;5.304;2022-08-24T05:14:26;23.18;60.92
66337;SHT30;53139;45.576;5.304;2022-08-24T05:17:28;23.17;61.55
66337;SHT30;53139;45.576;5.304;2022-08-24T05:20:28;23.15;61.63
66337;SHT30;53139;45.576;5.304;2022-08-24T05:23:28;23.14;61.59
66337;SHT30;53139;45.576;5.304;2022-08-24T05:26:30;23.12;61.66
66337;SHT30;53139;45.576;5.304;2022-08-24T05:29:30;23.12;61.59
66337;SHT30;53139;45.576;5.304;2022-08-24T05:32:34;23.07;61.52
66337;SHT30;53139;45.576;5.304;2022-08-24T05:35:37;23.04;61.19
66337;SHT30;53139;45.576;5.304;2022-08-24T05:38:38;23.06;61.65
66337;SHT30;53139;45.576;5.304;2022-08-24T05:41:40;23.06;61.70
66337;SHT30;53139;45.576;5.304;2022-08-24T05:44:41;23.04;61.48
66337;SHT30;53139;45.576;5.304;2022-08-24T05:47:42;23.07;61.43
66337;SHT30;53139;45.576;5.304;2022-08-24T05:50:42;23.06;61.41
66337;SHT30;53139;45.576;5.304;2022-08-24T05:53:43;23.04;61.52
66337;SHT30;53139;45.576;5.304;2022-08-24T05:56:44;23.04;61.68
66337;SHT30;53139;45.576;5.304;2022-08-24T05:59:45;23.03;61.36
66337;SHT30;53139;45.576;5.304;2022-08-24T06:02:45;23.01;61.34
66337;SHT30;53139;45.576;5.304;2022-08-24T06:05:45;22.99;61.07
66337;SHT30;53139;45.576;5.304;2022-08-24T06:08:50;22.99;60.42
66337;SHT30;53139;45.576;5.304;2022-08-24T06:11:51;23.01;60.53
66337;SHT30;53139;45.576;5.304;2022-08-24T06:14:52;23.00;60.61
66337;SHT30;53139;45.576;5.304;2022-08-24T06:17:53;23.03;60.75
66337;SHT30;53139;45.576;5.304;2022-08-24T06:20:54;23.01;61.02
66337;SHT30;53139;45.576;5.304;2022-08-24T06:23:55;23.03;60.79
66337;SHT30;53139;45.576;5.304;2022-08-24T06:26:55;23.06;60.80
66337;SHT30;53139;45.576;5.304;2022-08-24T06:30:14;23.04;60.77
66337;SHT30;53139;45.576;5.304;2022-08-24T06:33:14;23.04;61.16
66337;SHT30;53139;45.576;5.304;2022-08-24T06:36:15;23.07;60.99
66337;SHT30;53139;45.576;5.304;2022-08-24T06:39:15;23.07;60.96
66337;SHT30;53139;45.576;5.304;2022-08-24T06:42:16;23.08;61.43
66337;SHT30;53139;45.576;5.304;2022-08-24T06:45:16;23.10;61.23
66337;SHT30;53139;45.576;5.304;2022-08-24T06:48:17;23.11;61.13
66337;SHT30;53139;45.576;5.304;2022-08-24T06:51:18;23.14;60.81
66337;SHT30;53139;45.576;5.304;2022-08-24T06:54:19;23.11;60.91
66337;SHT30;53139;45.576;5.304;2022-08-24T06:57:20;23.12;61.02
66337;SHT30;53139;45.576;5.304;2022-08-24T07:00:21;23.11;61.19
66337;SHT30;53139;45.576;5.304;2022-08-24T07:03:23;23.15;60.78
66337;SHT30;53139;45.576;5.304;2022-08-24T07:06:24;23.20;60.33
66337;SHT30;53139;45.576;5.304;2022-08-24T07:09:24;23.21;60.48
66337;SHT30;53139;45.576;5.304;2022-08-24T07:12:25;23.24;60.49
66337;SHT30;53139;45.576;5.304;2022-08-24T07:15:26;23.31;60.57
66337;SHT30;53139;45.576;5.304;2022-08-24T07:18:27;23.37;60.50
66337;SHT30;53139;45.576;5.304;2022-08-24T07:21:28;23.42;60.24
66337;SHT30;53139;45.576;5.304;2022-08-24T07:24:28;23.44;60.17
66337;SHT30;53139;45.576;5.304;2022-08-24T07:27:28;23.46;60.25
66337;SHT30;53139;45.576;5.304;2022-08-24T07:30:29;23.54;60.24
66337;SHT30;53139;45.576;5.304;2022-08-24T07:33:30;23.58;60.06
66337;SHT30;53139;45.576;5.304;2022-08-24T07:36:31;23.62;60.17
66337;SHT30;53139;45.576;5.304;2022-08-24T07:39:31;23.66;60.39
66337;SHT30;53139;45.576;5.304;2022-08-24T07:42:31;23.70;60.28
66337;SHT30;53139;45.576;5.304;2022-08-24T07:45:32;23.76;60.34
66337;SHT30;53139;45.576;5.304;2022-08-24T07:48:34;23.80;60.30
66337;SHT30;53139;45.576;5.304;2022-08-24T07:51:35;23.86;60.38
66337;SHT30;53139;45.576;5.304;2022-08-24T07:54:35;23.89;60.52
66337;SHT30;53139;45.576;5.304;2022-08-24T07:57:37;23.94;60.70
66337;SHT30;53139;45.576;5.304;2022-08-24T08:00:38;23.97;60.94
66337;SHT30;53139;45.576;5.304;2022-08-24T08:03:38;24.01;60.87
66337;SHT30;53139;45.576;5.304;2022-08-24T08:06:41;24.04;60.19
66337;SHT30;53139;45.576;5.304;2022-08-24T08:09:41;24.01;60.53
66337;SHT30;53139;45.576;5.304;2022-08-24T08:12:42;24.06;60.79
66337;SHT30;53139;45.576;5.304;2022-08-24T08:15:43;24.06;60.65
66337;SHT30;53139;45.576;5.304;2022-08-24T08:18:44;24.07;61.19
66337;SHT30;53139;45.576;5.304;2022-08-24T08:21:47;24.14;61.16
66337;SHT30;53139;45.576;5.304;2022-08-24T08:25:06;24.21;61.36
66337;SHT30;53139;45.576;5.304;2022-08-24T08:28:07;24.25;61.15
66337;SHT30;53139;45.576;5.304;2022-08-24T08:31:08;24.31;60.82
66337;SHT30;53139;45.576;5.304;2022-08-24T08:34:08;24.32;60.43
66337;SHT30;53139;45.576;5.304;2022-08-24T08:37:10;24.32;61.15
66337;SHT30;53139;45.576;5.304;2022-08-24T08:40:23;24.37;61.16
66337;SHT30;53139;45.576;5.304;2022-08-24T08:43:40;24.41;60.50
66337;SHT30;53139;45.576;5.304;2022-08-24T08:47:05;24.47;60.45
66337;SHT30;53139;45.576;5.304;2022-08-24T08:50:44;24.54;60.43
66337;SHT30;53139;45.576;5.304;2022-08-24T09:00:17;24.73;60.26
66337;SHT30;53139;45.576;5.304;2022-08-24T09:07:14;24.87;60.15
66337;SHT30;53139;45.576;5.304;2022-08-24T09:14:03;24.89;59.76
66337;SHT30;53139;45.576;5.304;2022-08-24T09:17:32;24.90;59.63
66337;SHT30;53139;45.576;5.304;2022-08-24T09:27:54;25.03;59.79
66337;SHT30;53139;45.576;5.304;2022-08-24T09:31:37;25.07;59.65
66337;SHT30;53139;45.576;5.304;2022-08-24T09:48:20;25.17;59.25
66337;SHT30;53139;45.576;5.304;2022-08-24T09:51:50;25.27;58.67
66337;SHT30;53139;45.576;5.304;2022-08-24T10:01:35;25.38;58.93
66337;SHT30;53139;45.576;5.304;2022-08-24T10:04:49;25.48;58.28
66337;SHT30;53139;45.576;5.304;2022-08-24T10:11:35;25.66;57.69
66337;SHT30;53139;45.576;5.304;2022-08-24T10:15:10;25.48;57.91
66337;SHT30;53139;45.576;5.304;2022-08-24T10:18:26;25.37;56.74
66337;SHT30;53139;45.576;5.304;2022-08-24T10:32:13;25.47;56.93
66337;SHT30;53139;45.576;5.304;2022-08-24T10:53:04;26.17;56.50
66337;SHT30;53139;45.576;5.304;2022-08-24T10:59:21;26.36;56.52
66337;SHT30;53139;45.576;5.304;2022-08-24T11:02:34;26.45;56.43
66337;SHT30;53139;45.576;5.304;2022-08-24T11:05:40;26.49;56.47
66337;SHT30;53139;45.576;5.304;2022-08-24T11:08:52;26.55;56.19
66337;SHT30;53139;45.576;5.304;2022-08-24T11:11:53;26.58;56.21
66337;SHT30;53139;45.576;5.304;2022-08-24T11:14:56;26.67;56.05
66337;SHT30;53139;45.576;5.304;2022-08-24T11:17:59;26.78;56.08
66337;SHT30;53139;45.576;5.304;2022-08-24T11:20:59;26.86;56.10
66337;SHT30;53139;45.576;5.304;2022-08-24T11:24:26;26.98;56.06
66337;SHT30;53139;45.576;5.304;2022-08-24T11:27:33;27.04;56.06
66337;SHT30;53139;45.576;5.304;2022-08-24T11:30:38;26.91;54.81
66337;SHT30;53139;45.576;5.304;2022-08-24T11:33:48;26.76;54.40
66337;SHT30;53139;45.576;5.304;2022-08-24T11:36:49;26.76;54.49
66337;SHT30;53139;45.576;5.304;2022-08-24T11:39:49;26.75;55.26
66337;SHT30;53139;45.576;5.304;2022-08-24T11:43:05;26.83;54.97
66337;SHT30;53139;45.576;5.304;2022-08-24T11:46:25;26.86;54.34
66337;SHT30;53139;45.576;5.304;2022-08-24T11:56:30;26.91;53.50
66337;SHT30;53139;45.576;5.304;2022-08-24T11:59:58;27.03;52.13
66337;SHT30;53139;45.576;5.304;2022-08-24T12:03:09;27.07;52.01
66337;SHT30;53139;45.576;5.304;2022-08-24T12:06:34;27.14;51.43
66337;SHT30;53139;45.576;5.304;2022-08-24T12:12:57;27.26;54.87
66337;SHT30;53139;45.576;5.304;2022-08-24T12:16:07;27.38;52.18
66337;SHT30;53139;45.576;5.304;2022-08-24T12:19:15;27.50;52.68
66337;SHT30;53139;45.576;5.304;2022-08-24T12:22:18;27.69;54.98
66337;SHT30;53139;45.576;5.304;2022-08-24T12:25:20;27.82;54.89
66337;SHT30;53139;45.576;5.304;2022-08-24T12:28:43;27.75;51.98
66337;SHT30;53139;45.576;5.304;2022-08-24T12:31:53;27.82;53.49
66337;SHT30;53139;45.576;5.304;2022-08-24T12:38:34;27.95;55.04
66337;SHT30;53139;45.576;5.304;2022-08-24T12:45:11;28.06;54.76
66337;SHT30;53139;45.576;5.304;2022-08-24T12:48:13;28.12;55.18
66337;SHT30;53139;45.576;5.304;2022-08-24T12:54:45;28.24;53.65
66337;SHT30;53139;45.576;5.304;2022-08-24T13:01:16;28.20;50.74
66337;SHT30;53139;45.576;5.304;2022-08-24T13:07:39;28.41;47.47
66337;SHT30;53139;45.576;5.304;2022-08-24T13:10:44;28.46;49.19
66337;SHT30;53139;45.576;5.304;2022-08-24T13:20:20;28.41;48.35
66337;SHT30;53139;45.576;5.304;2022-08-24T13:23:23;28.36;48.84
66337;SHT30;53139;45.576;5.304;2022-08-24T13:26:24;28.36;49.59
66337;SHT30;53139;45.576;5.304;2022-08-24T13:29:32;28.40;48.56
66337;SHT30;53139;45.576;5.304;2022-08-24T13:32:44;28.35;48.59
66337;SHT30;53139;45.576;5.304;2022-08-24T13:35:55;28.39;47.59
66337;SHT30;53139;45.576;5.304;2022-08-24T13:39:10;28.40;47.97
66337;SHT30;53139;45.576;5.304;2022-08-24T13:45:45;28.57;45.73
66337;SHT30;53139;45.576;5.304;2022-08-24T13:49:00;28.61;46.04
66337;SHT30;53139;45.576;5.304;2022-08-24T13:52:15;28.68;47.76
66337;SHT30;53139;45.576;5.304;2022-08-24T13:58:42;28.92;46.47
66337;SHT30;53139;45.576;5.304;2022-08-24T14:15:54;28.90;45.75
66337;SHT30;53139;45.576;5.304;2022-08-24T14:18:47;29.15;44.08
66337;SHT30;53139;45.576;5.304;2022-08-24T14:22:12;29.18;44.31
66337;SHT30;53139;45.576;5.304;2022-08-24T14:25:21;29.33;43.75
66337;SHT30;53139;45.576;5.304;2022-08-24T14:28:41;29.27;43.98
66337;SHT30;53139;45.576;5.304;2022-08-24T14:35:14;29.40;43.03
66337;SHT30;53139;45.576;5.304;2022-08-24T14:38:21;29.50;42.75
66337;SHT30;53139;45.576;5.304;2022-08-24T14:41:42;29.49;44.02
66337;SHT30;53139;45.576;5.304;2022-08-24T15:08:06;29.71;42.99
66337;SHT30;53139;45.576;5.304;2022-08-24T15:11:13;29.71;43.83
66337;SHT30;53139;45.576;5.304;2022-08-24T15:14:50;29.89;46.17
66337;SHT30;53139;45.576;5.304;2022-08-24T15:21:22;30.35;44.41
66337;SHT30;53139;45.576;5.304;2022-08-24T15:27:52;30.53;45.37
66337;SHT30;53139;45.576;5.304;2022-08-24T15:30:57;30.56;45.50
66337;SHT30;53139;45.576;5.304;2022-08-24T15:34:01;30.54;45.63
66337;SHT30;53139;45.576;5.304;2022-08-24T15:37:02;30.61;44.77
66337;SHT30;53139;45.576;5.304;2022-08-24T15:40:16;30.73;44.44
66337;SHT30;53139;45.576;5.304;2022-08-24T15:43:17;30.80;45.30
66337;SHT30;53139;45.576;5.304;2022-08-24T15:46:21;30.85;45.73
66337;SHT30;53139;45.576;5.304;2022-08-24T15:52:43;30.91;44.78
66337;SHT30;53139;45.576;5.304;2022-08-24T15:55:46;30.84;45.74
66337;SHT30;53139;45.576;5.304;2022-08-24T15:58:47;30.87;45.32
66337;SHT30;53139;45.576;5.304;2022-08-24T16:02:23;30.98;43.29
66337;SHT30;53139;45.576;5.304;2022-08-24T16:12:13;30.96;44.65
66337;SHT30;53139;45.576;5.304;2022-08-24T16:15:18;30.94;45.85
66337;SHT30;53139;45.576;5.304;2022-08-24T16:18:19;30.94;46.11
66337;SHT30;53139;45.576;5.304;2022-08-24T16:27:51;30.99;45.69
66337;SHT30;53139;45.576;5.304;2022-08-24T16:30:57;31.03;44.95
66337;SHT30;53139;45.576;5.304;2022-08-24T16:37:16;31.05;45.76
66337;SHT30;53139;45.576;5.304;2022-08-24T16:40:19;31.08;46.08
66337;SHT30;53139;45.576;5.304;2022-08-24T16:43:19;31.03;46.86
66337;SHT30;53139;45.576;5.304;2022-08-24T16:46:22;31.01;46.79
66337;SHT30;53139;45.576;5.304;2022-08-24T16:49:22;31.02;46.48
66337;SHT30;53139;45.576;5.304;2022-08-24T16:52:23;31.09;45.37
66337;SHT30;53139;45.576;5.304;2022-08-24T16:55:23;31.07;46.39
66337;SHT30;53139;45.576;5.304;2022-08-24T16:58:31;30.94;46.83
66337;SHT30;53139;45.576;5.304;2022-08-24T17:01:33;31.07;46.55
66337;SHT30;53139;45.576;5.304;2022-08-24T17:04:33;31.07;46.47
66337;SHT30;53139;45.576;5.304;2022-08-24T17:07:33;31.08;47.07
66337;SHT30;53139;45.576;5.304;2022-08-24T17:10:34;31.09;46.59
66337;SHT30;53139;45.576;5.304;2022-08-24T17:13:34;31.09;44.47
66337;SHT30;53139;45.576;5.304;2022-08-24T17:16:35;31.12;45.07
66337;SHT30;53139;45.576;5.304;2022-08-24T17:19:36;31.12;44.33
66337;SHT30;53139;45.576;5.304;2022-08-24T17:22:37;31.07;47.14
66337;SHT30;53139;45.576;5.304;2022-08-24T17:25:38;31.03;49.07
66337;SHT30;53139;45.576;5.304;2022-08-24T17:28:43;31.08;47.97
66337;SHT30;53139;45.576;5.304;2022-08-24T17:31:47;31.14;44.59
66337;SHT30;53139;45.576;5.304;2022-08-24T17:34:51;31.12;44.92
66337;SHT30;53139;45.576;5.304;2022-08-24T17:37:51;31.02;44.26
66337;SHT30;53139;45.576;5.304;2022-08-24T17:40:52;31.03;45.65
66337;SHT30;53139;45.576;5.304;2022-08-24T17:43:53;31.08;44.18
66337;SHT30;53139;45.576;5.304;2022-08-24T17:46:57;31.03;44.82
66337;SHT30;53139;45.576;5.304;2022-08-24T17:50:02;31.01;45.59
66337;SHT30;53139;45.576;5.304;2022-08-24T17:53:03;30.96;44.08
66337;SHT30;53139;45.576;5.304;2022-08-24T17:56:05;30.95;44.47
66337;SHT30;53139;45.576;5.304;2022-08-24T17:59:08;30.92;44.83
66337;SHT30;53139;45.576;5.304;2022-08-24T18:02:24;30.85;45.41
66337;SHT30;53139;45.576;5.304;2022-08-24T18:05:24;30.75;46.70
66337;SHT30;53139;45.576;5.304;2022-08-24T18:08:25;30.68;45.95
66337;SHT30;53139;45.576;5.304;2022-08-24T18:11:25;30.64;45.63
66337;SHT30;53139;45.576;5.304;2022-08-24T18:14:27;30.61;46.35
66337;SHT30;53139;45.576;5.304;2022-08-24T18:17:36;30.57;46.42
66337;SHT30;53139;45.576;5.304;2022-08-24T18:20:39;30.56;46.44
66337;SHT30;53139;45.576;5.304;2022-08-24T18:23:40;30.53;45.93
66337;SHT30;53139;45.576;5.304;2022-08-24T18:26:41;30.46;46.03
66337;SHT30;53139;45.576;5.304;2022-08-24T18:29:42;30.43;45.74
66337;SHT30;53139;45.576;5.304;2022-08-24T18:32:43;30.35;45.72
66337;SHT30;53139;45.576;5.304;2022-08-24T18:35:43;30.30;45.68
66337;SHT30;53139;45.576;5.304;2022-08-24T18:38:45;30.23;45.67
66337;SHT30;53139;45.576;5.304;2022-08-24T18:41:47;30.18;45.76
66337;SHT30;53139;45.576;5.304;2022-08-24T18:44:47;30.18;45.80
66337;SHT30;53139;45.576;5.304;2022-08-24T18:47:48;30.12;46.23
66337;SHT30;53139;45.576;5.304;2022-08-24T18:50:50;30.09;46.26
66337;SHT30;53139;45.576;5.304;2022-08-24T18:53:59;30.05;46.32
66337;SHT30;53139;45.576;5.304;2022-08-24T18:57:00;29.99;46.53
66337;SHT30;53139;45.576;5.304;2022-08-24T19:00:01;29.92;46.74
66337;SHT30;53139;45.576;5.304;2022-08-24T19:03:05;29.85;47.11
66337;SHT30;53139;45.576;5.304;2022-08-24T19:06:06;29.81;47.25
66337;SHT30;53139;45.576;5.304;2022-08-24T19:09:06;29.77;47.37
66337;SHT30;53139;45.576;5.304;2022-08-24T19:12:07;29.73;47.44
66337;SHT30;53139;45.576;5.304;2022-08-24T19:15:08;29.67;47.40
66337;SHT30;53139;45.576;5.304;2022-08-24T19:18:09;29.64;47.43
66337;SHT30;53139;45.576;5.304;2022-08-24T19:21:10;29.60;47.58
66337;SHT30;53139;45.576;5.304;2022-08-24T19:24:10;29.53;47.81
66337;SHT30;53139;45.576;5.304;2022-08-24T19:27:11;29.46;48.03
66337;SHT30;53139;45.576;5.304;2022-08-24T19:30:13;29.40;48.05
66337;SHT30;53139;45.576;5.304;2022-08-24T19:33:22;29.36;48.23
66337;SHT30;53139;45.576;5.304;2022-08-24T19:36:23;29.27;48.16
66337;SHT30;53139;45.576;5.304;2022-08-24T19:39:24;29.25;48.12
66337;SHT30;53139;45.576;5.304;2022-08-24T19:42:25;29.20;48.37
66337;SHT30;53139;45.576;5.304;2022-08-24T19:45:25;29.12;48.35
66337;SHT30;53139;45.576;5.304;2022-08-24T19:48:44;29.12;48.26
66337;SHT30;53139;45.576;5.304;2022-08-24T19:51:44;29.03;48.34
66337;SHT30;53139;45.576;5.304;2022-08-24T19:54:46;28.98;48.52
66337;SHT30;53139;45.576;5.304;2022-08-24T20:00:49;28.88;48.57
66337;SHT30;53139;45.576;5.304;2022-08-24T20:03:50;28.82;48.57
66337;SHT30;53139;45.576;5.304;2022-08-24T20:06:50;28.78;48.62
66337;SHT30;53139;45.576;5.304;2022-08-24T20:09:50;28.72;48.62
66337;SHT30;53139;45.576;5.304;2022-08-24T20:12:51;28.65;48.73
66337;SHT30;53139;45.576;5.304;2022-08-24T20:15:53;28.65;48.84
66337;SHT30;53139;45.576;5.304;2022-08-24T20:18:53;28.60;48.80
66337;SHT30;53139;45.576;5.304;2022-08-24T20:21:54;28.54;48.83
66337;SHT30;53139;45.576;5.304;2022-08-24T20:24:54;28.51;48.81
66337;SHT30;53139;45.576;5.304;2022-08-24T20:27:55;28.48;48.91
66337;SHT30;53139;45.576;5.304;2022-08-24T20:30:57;28.46;49.11
66337;SHT30;53139;45.576;5.304;2022-08-24T20:33:58;28.44;49.04
66337;SHT30;53139;45.576;5.304;2022-08-24T20:36:58;28.40;49.14
66337;SHT30;53139;45.576;5.304;2022-08-24T20:40:00;28.39;49.27
66337;SHT30;53139;45.576;5.304;2022-08-24T20:43:01;28.39;49.49
66337;SHT30;53139;45.576;5.304;2022-08-24T20:46:02;28.33;49.57
66337;SHT30;53139;45.576;5.304;2022-08-24T20:49:04;28.27;49.61
66337;SHT30;53139;45.576;5.304;2022-08-24T20:52:06;28.24;49.65
66337;SHT30;53139;45.576;5.304;2022-08-24T20:55:09;28.17;49.69
66337;SHT30;53139;45.576;5.304;2022-08-24T20:58:09;28.14;49.88
66337;SHT30;53139;45.576;5.304;2022-08-24T21:01:10;28.12;49.86
66337;SHT30;53139;45.576;5.304;2022-08-24T21:04:10;28.06;50.06
66337;SHT30;53139;45.576;5.304;2022-08-24T21:07:11;27.96;50.01
66337;SHT30;53139;45.576;5.304;2022-08-24T21:10:12;27.93;50.14
66337;SHT30;53139;45.576;5.304;2022-08-24T21:13:13;27.88;50.24
66337;SHT30;53139;45.576;5.304;2022-08-24T21:16:14;27.81;50.40
66337;SHT30;53139;45.576;5.304;2022-08-24T21:19:15;27.78;50.39
66337;SHT30;53139;45.576;5.304;2022-08-24T21:22:16;27.69;50.51
66337;SHT30;53139;45.576;5.304;2022-08-24T21:25:17;27.66;50.49
66337;SHT30;53139;45.576;5.304;2022-08-24T21:28:18;27.61;50.41
66337;SHT30;53139;45.576;5.304;2022-08-24T21:31:19;27.57;50.41
66337;SHT30;53139;45.576;5.304;2022-08-24T21:34:19;27.58;50.39
66337;SHT30;53139;45.576;5.304;2022-08-24T21:37:38;27.48;50.77
66337;SHT30;53139;45.576;5.304;2022-08-24T21:40:38;27.44;50.84
66337;SHT30;53139;45.576;5.304;2022-08-24T21:43:39;27.41;50.63
66337;SHT30;53139;45.576;5.304;2022-08-24T21:46:39;27.37;50.89
66337;SHT30;53139;45.576;5.304;2022-08-24T21:49:43;27.30;50.81
66337;SHT30;53139;45.576;5.304;2022-08-24T21:52:44;27.29;50.73
66337;SHT30;53139;45.576;5.304;2022-08-24T21:55:44;27.23;50.57
66337;SHT30;53139;45.576;5.304;2022-08-24T21:58:45;27.22;50.87
66337;SHT30;53139;45.576;5.304;2022-08-24T22:01:45;27.17;50.61
66337;SHT30;53139;45.576;5.304;2022-08-24T22:04:46;27.10;50.67
66337;SHT30;53139;45.576;5.304;2022-08-24T22:07:47;27.07;51.12
66337;SHT30;53139;45.576;5.304;2022-08-24T22:10:47;27.06;51.31
66337;SHT30;53139;45.576;5.304;2022-08-24T22:13:48;27.03;51.17
66337;SHT30;53139;45.576;5.304;2022-08-24T22:16:49;26.98;51.28
66337;SHT30;53139;45.576;5.304;2022-08-24T22:19:50;26.93;51.40
66337;SHT30;53139;45.576;5.304;2022-08-24T22:22:50;26.92;51.47
66337;SHT30;53139;45.576;5.304;2022-08-24T22:25:52;26.88;51.43
66337;SHT30;53139;45.576;5.304;2022-08-24T22:28:53;26.83;51.62